createdAt,value
2022-12-18T00:01:36.316Z,1.00
2022-12-18T00:04:07.032Z,0.82
2022-12-18T00:06:37.010Z,1.02
2022-12-18T00:09:05.352Z,0.90
2022-12-18T00:11:33.635Z,1.33
2022-12-18T00:14:02.339Z,1.20
2022-12-18T00:16:49.733Z,1.10
2022-12-18T00:19:17.949Z,0.93
2022-12-18T00:22:04.792Z,1.20
2022-12-18T00:24:33.235Z,1.05
2022-12-18T00:27:01.377Z,1.00
2022-12-18T00:29:49.237Z,0.93
2022-12-18T00:32:18.208Z,0.70
2022-12-18T00:34:46.462Z,1.05
2022-12-18T00:37:34.783Z,1.08
2022-12-18T00:40:04.433Z,0.90
2022-12-18T00:42:51.327Z,1.00
2022-12-18T00:45:19.569Z,1.65
2022-12-18T00:47:48.292Z,6.20
2022-12-18T00:50:16.843Z,2.08
2022-12-18T00:52:45.193Z,1.00
2022-12-18T00:55:14.381Z,1.45
2022-12-18T00:57:43.125Z,1.30
2022-12-18T01:00:16.506Z,1.52
2022-12-18T01:03:03.721Z,1.23
2022-12-18T01:05:32.272Z,1.20
2022-12-18T01:08:18.754Z,1.25
2022-12-18T01:10:46.899Z,1.33
2022-12-18T01:13:15.485Z,1.50
2022-12-18T01:16:02.692Z,1.45
2022-12-18T01:18:30.873Z,1.42
2022-12-18T01:21:00.533Z,1.73
2022-12-18T01:23:48.072Z,1.25
2022-12-18T01:26:17.639Z,1.10
2022-12-18T01:28:46.044Z,1.50
2022-12-18T01:31:17.634Z,1.55
2022-12-18T01:33:49.595Z,1.27
2022-12-18T01:36:39.036Z,1.33
2022-12-18T01:39:13.560Z,1.48
2022-12-18T01:42:02.447Z,1.45
2022-12-18T01:45:04.441Z,1.42
2022-12-18T01:47:41.832Z,1.77
2022-12-18T01:50:20.954Z,2.50
2022-12-18T01:52:58.175Z,2.80
2022-12-18T01:55:31.090Z,2.83
2022-12-18T01:58:00.688Z,2.38
2022-12-18T02:03:15.866Z,2.42
2022-12-18T02:06:10.326Z,2.08
2022-12-18T02:09:04.765Z,2.10
2022-12-18T02:14:38.858Z,2.22
2022-12-18T02:17:24.972Z,1.98
2022-12-18T02:20:29.483Z,1.90
2022-12-18T02:23:07.931Z,1.30
2022-12-18T02:25:42.296Z,1.52
2022-12-18T02:28:15.050Z,1.67
2022-12-18T02:31:03.247Z,2.00
2022-12-18T02:33:33.444Z,1.40
2022-12-18T02:36:02.644Z,1.40
2022-12-18T02:38:33.855Z,1.25
2022-12-18T02:41:08.994Z,1.30
2022-12-18T02:44:03.355Z,1.08
2022-12-18T02:46:54.445Z,1.40
2022-12-18T02:49:41.422Z,1.50
2022-12-18T02:52:35.127Z,1.10
2022-12-18T02:55:36.945Z,1.40
2022-12-18T02:58:46.012Z,1.30
2022-12-18T03:04:05.701Z,1.40
2022-12-18T03:06:38.576Z,1.25
2022-12-18T03:09:22.823Z,1.88
2022-12-18T03:12:16.374Z,1.77
2022-12-18T03:14:46.670Z,1.85
2022-12-18T03:17:20.873Z,2.17
2022-12-18T03:19:51.159Z,2.30
2022-12-18T03:22:20.120Z,1.75
2022-12-18T03:24:54.264Z,1.90
2022-12-18T03:27:24.820Z,1.95
2022-12-18T03:33:23.302Z,1.67
2022-12-18T03:36:31.892Z,1.90
2022-12-18T03:39:00.401Z,1.70
2022-12-18T03:41:34.147Z,1.77
2022-12-18T03:45:09.584Z,1.95
2022-12-18T03:47:42.870Z,1.95
2022-12-18T03:53:29.687Z,1.77
2022-12-18T03:56:00.610Z,1.50
2022-12-18T03:58:37.306Z,1.50
2022-12-18T04:01:36.029Z,1.55
2022-12-18T04:04:06.145Z,1.30
2022-12-18T04:06:39.454Z,2.03
2022-12-18T04:09:09.155Z,1.73
2022-12-18T04:11:47.300Z,1.30
2022-12-18T04:14:36.805Z,1.58
2022-12-18T04:17:09.156Z,1.63
2022-12-18T04:19:37.527Z,1.60
2022-12-18T04:22:05.892Z,1.98
2022-12-18T04:24:52.489Z,2.78
2022-12-18T04:27:30.643Z,2.42
2022-12-18T04:30:01.174Z,2.75
2022-12-18T04:32:29.636Z,2.75
2022-12-18T04:34:57.898Z,2.83
2022-12-18T04:37:26.216Z,2.47
2022-12-18T04:39:54.506Z,2.38
2022-12-18T04:42:30.193Z,2.63
2022-12-18T04:44:58.324Z,2.55
2022-12-18T04:47:26.497Z,2.30
2022-12-18T04:49:54.831Z,2.40
2022-12-18T04:52:41.792Z,2.40
2022-12-18T04:55:10.242Z,2.20
2022-12-18T04:57:38.449Z,1.85
2022-12-18T05:00:07.463Z,1.98
2022-12-18T05:02:35.753Z,2.20
2022-12-18T05:05:04.566Z,3.00
2022-12-18T05:07:32.779Z,2.33
2022-12-18T05:10:19.413Z,2.58
2022-12-18T05:13:01.400Z,2.10
2022-12-18T05:15:34.245Z,2.25
2022-12-18T05:18:05.103Z,2.00
2022-12-18T05:20:33.452Z,1.83
2022-12-18T05:23:20.295Z,2.05
2022-12-18T05:26:00.357Z,1.83
2022-12-18T05:28:30.321Z,1.98
2022-12-18T05:31:01.292Z,2.15
2022-12-18T05:33:32.739Z,1.80
2022-12-18T05:36:37.827Z,2.13
2022-12-18T05:39:24.353Z,2.38
2022-12-18T05:41:52.443Z,1.77
2022-12-18T05:44:21.279Z,1.90
2022-12-18T05:46:53.408Z,2.25
2022-12-18T05:49:24.110Z,1.85
2022-12-18T05:51:53.550Z,1.80
2022-12-18T05:54:22.294Z,1.80
2022-12-18T05:56:50.874Z,1.88
2022-12-18T05:59:18.961Z,1.80
2022-12-18T06:01:47.229Z,2.28
2022-12-18T06:04:15.415Z,2.22
2022-12-18T06:09:32.069Z,2.40
2022-12-18T06:12:00.121Z,2.15
2022-12-18T06:14:28.338Z,2.30
2022-12-18T06:16:56.434Z,2.47
2022-12-18T06:19:24.481Z,2.20
2022-12-18T06:21:52.699Z,2.92
2022-12-18T06:24:20.740Z,2.60
2022-12-18T06:26:48.738Z,2.50
2022-12-18T06:29:16.910Z,2.33
2022-12-18T06:31:45.066Z,2.15
2022-12-18T06:34:13.242Z,2.40
2022-12-18T06:36:41.384Z,2.28
2022-12-18T06:39:09.819Z,2.20
2022-12-18T06:41:38.140Z,2.33
2022-12-18T06:44:08.017Z,2.80
2022-12-18T06:46:35.998Z,2.45
2022-12-18T06:49:04.140Z,2.65
2022-12-18T06:51:32.239Z,2.45
2022-12-18T06:54:00.368Z,2.53
2022-12-18T06:56:29.879Z,2.75
2022-12-18T06:58:58.022Z,2.95
2022-12-18T07:01:26.254Z,2.97
2022-12-18T07:03:56.241Z,2.75
2022-12-18T07:06:26.207Z,3.28
2022-12-18T07:09:13.081Z,3.17
2022-12-18T07:11:41.311Z,4.03
2022-12-18T07:14:09.349Z,4.15
2022-12-18T07:16:37.538Z,4.80
2022-12-18T07:19:05.805Z,4.78
2022-12-18T07:21:34.138Z,4.85
2022-12-18T07:24:02.274Z,4.32
2022-12-18T07:26:49.173Z,4.15
2022-12-18T07:29:17.287Z,3.75
2022-12-18T07:32:03.967Z,3.60
2022-12-18T07:34:32.296Z,3.33
2022-12-18T07:37:00.408Z,3.85
2022-12-18T07:39:28.603Z,3.15
2022-12-18T07:42:16.072Z,2.47
2022-12-18T07:44:45.048Z,1.95
2022-12-18T07:47:13.181Z,1.90
2022-12-18T07:49:41.352Z,2.00
2022-12-18T07:52:27.884Z,1.80
2022-12-18T07:54:56.030Z,1.90
2022-12-18T07:57:48.848Z,2.13
2022-12-18T08:00:13.675Z,1.90
2022-12-18T08:02:44.224Z,2.20
2022-12-18T08:05:12.473Z,2.30
2022-12-18T08:07:41.099Z,2.38
2022-12-18T08:10:09.726Z,1.92
2022-12-18T08:12:38.501Z,2.25
2022-12-18T08:15:27.103Z,2.50
2022-12-18T08:17:58.552Z,2.67
2022-12-18T08:20:26.891Z,2.67
2022-12-18T08:22:55.518Z,2.65
2022-12-18T08:25:23.830Z,3.00
2022-12-18T08:27:52.049Z,2.90
2022-12-18T08:30:20.177Z,3.08
2022-12-18T08:32:48.440Z,2.78
2022-12-18T08:35:18.804Z,3.13
2022-12-18T08:37:47.065Z,3.38
2022-12-18T08:40:15.457Z,3.42
2022-12-18T08:43:02.402Z,2.88
2022-12-18T08:45:49.355Z,2.10
2022-12-18T08:48:35.979Z,1.80
2022-12-18T08:51:04.269Z,1.75
2022-12-18T08:53:35.578Z,1.70
2022-12-18T08:56:05.218Z,1.95
2022-12-18T08:58:33.398Z,1.58
2022-12-18T09:01:07.105Z,1.58
2022-12-18T09:03:35.365Z,1.42
2022-12-18T09:06:03.800Z,1.08
2022-12-18T09:08:32.075Z,1.00
2022-12-18T09:11:00.193Z,1.20
2022-12-18T09:13:28.392Z,1.50
2022-12-18T09:15:57.129Z,1.17
2022-12-18T09:18:25.814Z,1.10
2022-12-18T09:20:54.291Z,1.20
2022-12-18T09:23:22.830Z,1.30
2022-12-18T09:25:51.126Z,0.85
2022-12-18T09:28:20.462Z,1.00
2022-12-18T09:30:50.584Z,1.05
2022-12-18T09:33:18.977Z,1.08
2022-12-18T09:35:47.984Z,1.13
2022-12-18T09:38:21.597Z,0.95
2022-12-18T09:40:55.253Z,0.80
2022-12-18T09:43:29.730Z,0.73
2022-12-18T09:46:07.091Z,0.90
2022-12-18T09:48:49.254Z,0.73
2022-12-18T09:51:21.715Z,0.68
2022-12-18T09:53:56.394Z,1.08
2022-12-18T09:56:36.352Z,1.27
2022-12-18T09:59:06.176Z,1.00
2022-12-18T10:01:43.239Z,0.80
2022-12-18T10:04:12.479Z,0.95
2022-12-18T10:07:07.257Z,1.10
2022-12-18T10:09:55.190Z,1.40
2022-12-18T10:12:30.512Z,1.45
2022-12-18T10:15:21.156Z,0.95
2022-12-18T10:17:59.684Z,1.48
2022-12-18T10:20:46.312Z,0.60
2022-12-18T10:23:29.373Z,0.80
2022-12-18T10:26:04.629Z,0.80
2022-12-18T10:29:15.318Z,0.60
2022-12-18T10:31:43.887Z,0.57
2022-12-18T10:34:13.290Z,0.60
2022-12-18T10:36:43.864Z,0.63
2022-12-18T10:39:23.599Z,0.95
2022-12-18T10:42:13.025Z,0.50
2022-12-18T10:44:41.197Z,0.80
2022-12-18T10:47:16.925Z,0.82
2022-12-18T10:49:52.168Z,0.70
2022-12-18T10:52:23.882Z,1.02
2022-12-18T10:54:59.663Z,0.90
2022-12-18T10:57:46.565Z,0.80
2022-12-18T11:00:31.795Z,0.50
2022-12-18T11:03:00.291Z,0.50
2022-12-18T11:05:38.235Z,0.50
2022-12-18T11:08:06.365Z,0.65
2022-12-18T11:10:38.695Z,0.30
2022-12-18T11:13:25.918Z,0.68
2022-12-18T11:15:54.345Z,0.40
2022-12-18T11:18:35.063Z,0.80
2022-12-18T11:21:09.413Z,0.60
2022-12-18T11:23:46.015Z,0.40
2022-12-18T11:26:15.053Z,0.57
2022-12-18T11:28:53.099Z,0.65
2022-12-18T11:31:26.996Z,0.50
2022-12-18T11:34:28.013Z,0.65
2022-12-18T11:36:54.777Z,0.60
2022-12-18T11:39:32.602Z,0.50
2022-12-18T11:42:13.146Z,0.50
2022-12-18T11:44:59.915Z,0.40
2022-12-18T11:47:48.000Z,0.82
2022-12-18T11:50:23.440Z,0.60
2022-12-18T11:52:56.683Z,0.60
2022-12-18T11:56:18.040Z,0.57
2022-12-18T11:58:49.142Z,0.70
2022-12-18T12:04:31.387Z,0.50
2022-12-18T12:07:11.499Z,0.60
2022-12-18T12:10:06.667Z,0.55
2022-12-18T12:12:53.093Z,0.40
2022-12-18T12:18:50.331Z,0.50
2022-12-18T12:21:34.214Z,0.50
2022-12-18T12:24:25.039Z,0.43
2022-12-18T12:27:14.404Z,0.40
2022-12-18T12:30:05.190Z,0.50
2022-12-18T12:32:45.280Z,0.60
2022-12-18T12:35:38.381Z,0.30
2022-12-18T12:38:14.812Z,0.70
2022-12-18T12:40:53.757Z,0.50
2022-12-18T12:43:49.665Z,0.50
2022-12-18T12:46:23.124Z,0.30
2022-12-18T12:49:17.994Z,0.50
2022-12-18T12:52:04.915Z,0.40
2022-12-18T12:54:52.518Z,0.40
2022-12-18T12:57:52.900Z,0.40
2022-12-18T13:00:22.119Z,0.50
2022-12-18T13:03:13.762Z,0.55
2022-12-18T13:05:50.761Z,0.43
2022-12-18T13:08:26.900Z,0.50
2022-12-18T13:11:15.687Z,0.90
2022-12-18T13:13:56.949Z,0.47
2022-12-18T13:16:28.738Z,0.47
2022-12-18T13:19:00.067Z,0.40
2022-12-18T13:24:00.272Z,1.10
2022-12-18T13:26:29.575Z,0.63
2022-12-18T13:28:59.099Z,0.60
2022-12-18T13:31:42.675Z,0.50
2022-12-18T13:34:31.160Z,0.52
2022-12-18T13:37:41.449Z,0.70
2022-12-18T13:40:48.190Z,0.40
2022-12-18T13:43:19.329Z,0.50
2022-12-18T13:46:22.438Z,0.47
2022-12-18T13:48:58.874Z,0.80
2022-12-18T13:51:28.388Z,0.60
2022-12-18T13:54:00.988Z,0.60
2022-12-18T13:56:32.431Z,0.60
2022-12-18T13:59:14.735Z,0.35
2022-12-18T14:02:14.552Z,0.63
2022-12-18T14:04:47.278Z,0.65
2022-12-18T14:12:41.100Z,0.90
2022-12-18T14:15:24.725Z,0.50
2022-12-18T14:17:56.050Z,0.70
2022-12-18T14:20:25.558Z,0.60
2022-12-18T14:22:53.800Z,0.60
2022-12-18T14:25:25.130Z,0.40
2022-12-18T14:28:16.801Z,0.60
2022-12-18T14:30:46.792Z,0.80
2022-12-18T14:33:19.846Z,0.73
2022-12-18T14:35:59.724Z,0.60
2022-12-18T14:38:29.520Z,0.77
2022-12-18T14:41:00.190Z,0.80
2022-12-18T14:43:30.541Z,1.02
2022-12-18T14:46:00.101Z,1.05
2022-12-18T14:48:40.837Z,0.80
2022-12-18T14:51:21.886Z,2.20
2022-12-18T14:53:57.720Z,1.65
2022-12-18T14:56:37.836Z,3.85
2022-12-18T14:59:23.759Z,2.38
2022-12-18T15:02:26.455Z,5.85
2022-12-18T15:05:12.697Z,2.03
2022-12-18T15:07:44.544Z,0.75
2022-12-18T15:10:20.001Z,0.63
2022-12-18T15:12:57.109Z,0.80
2022-12-18T15:15:34.848Z,0.75
2022-12-18T15:18:25.918Z,0.50
2022-12-18T15:20:54.064Z,1.05
2022-12-18T15:23:29.205Z,0.80
2022-12-18T15:26:18.789Z,0.70
2022-12-18T15:28:51.352Z,0.70
2022-12-18T15:31:29.685Z,1.00
2022-12-18T15:33:57.983Z,0.60
2022-12-18T15:36:27.139Z,0.70
2022-12-18T15:42:02.240Z,0.90
2022-12-18T15:44:30.971Z,0.63
2022-12-18T15:46:59.812Z,0.88
2022-12-18T15:49:27.983Z,0.70
2022-12-18T15:51:59.679Z,0.50
2022-12-18T15:54:46.820Z,0.95
2022-12-18T15:57:27.785Z,0.50
2022-12-18T16:00:00.818Z,0.65
2022-12-18T16:02:29.902Z,0.40
2022-12-18T16:04:58.064Z,0.70
2022-12-18T16:07:28.139Z,1.00
2022-12-18T16:10:00.273Z,0.65
2022-12-18T16:12:30.570Z,0.60
2022-12-18T16:14:58.725Z,0.80
2022-12-18T16:17:45.704Z,0.63
2022-12-18T16:20:23.096Z,0.40
2022-12-18T16:22:51.387Z,0.75
2022-12-18T16:25:32.629Z,0.50
2022-12-18T16:28:00.762Z,0.60
2022-12-18T16:33:17.381Z,0.60
2022-12-18T16:35:53.188Z,0.47
2022-12-18T16:38:21.451Z,0.38
2022-12-18T16:41:07.851Z,0.40
2022-12-18T16:43:36.665Z,0.40
2022-12-18T16:46:04.735Z,0.47
2022-12-18T16:48:32.913Z,0.60
2022-12-18T16:51:04.087Z,0.40
2022-12-18T16:53:34.663Z,0.60
2022-12-18T16:56:03.454Z,0.70
2022-12-18T16:58:33.438Z,0.63
2022-12-18T17:01:01.567Z,0.50
2022-12-18T17:03:29.798Z,0.47
2022-12-18T17:06:04.325Z,0.50
2022-12-18T17:08:32.845Z,0.45
2022-12-18T17:11:09.707Z,0.50
2022-12-18T17:13:38.188Z,0.50
2022-12-18T17:16:08.501Z,0.50
2022-12-18T17:18:36.666Z,0.70
2022-12-18T17:21:09.754Z,1.20
2022-12-18T17:23:38.392Z,0.90
2022-12-18T17:26:08.437Z,0.40
2022-12-18T17:28:38.122Z,0.60
2022-12-18T17:31:23.149Z,0.60
2022-12-18T17:33:52.941Z,0.50
2022-12-18T17:36:23.657Z,0.75
2022-12-18T17:38:54.980Z,0.45
2022-12-18T17:41:23.834Z,0.60
2022-12-18T17:43:53.589Z,1.10
2022-12-18T17:46:22.131Z,0.98
2022-12-18T17:48:50.535Z,0.60
2022-12-18T17:51:19.200Z,0.90
2022-12-18T17:53:47.300Z,1.27
2022-12-18T17:56:17.487Z,0.70
2022-12-18T17:58:46.099Z,0.65
2022-12-18T18:01:20.683Z,0.52
2022-12-18T18:03:52.892Z,0.50
2022-12-18T18:06:23.270Z,1.08
2022-12-18T18:08:52.323Z,0.85
2022-12-18T18:11:40.352Z,0.60
2022-12-18T18:14:15.623Z,0.70
2022-12-18T18:17:04.330Z,0.80
2022-12-18T18:19:34.628Z,1.02
2022-12-18T18:22:03.166Z,0.73
2022-12-18T18:24:33.591Z,0.60
2022-12-18T18:30:05.997Z,0.63
2022-12-18T18:32:34.136Z,0.95
2022-12-18T18:35:02.310Z,0.73
2022-12-18T18:37:30.381Z,0.75
2022-12-18T18:39:58.454Z,0.80
2022-12-18T18:42:26.450Z,1.00
2022-12-18T18:44:54.568Z,0.52
2022-12-18T18:47:22.663Z,0.60
2022-12-18T18:49:51.006Z,0.65
2022-12-18T18:52:19.108Z,0.63
2022-12-18T18:55:11.530Z,1.02
2022-12-18T18:57:36.694Z,0.70
2022-12-18T19:00:05.422Z,1.13
2022-12-18T19:02:34.028Z,0.90
2022-12-18T19:05:02.536Z,1.10
2022-12-18T19:07:31.362Z,1.00
2022-12-18T19:10:04.859Z,0.88
2022-12-18T19:12:53.156Z,1.50
2022-12-18T19:15:22.895Z,1.58
2022-12-18T19:17:51.230Z,0.80
2022-12-18T19:20:20.013Z,0.80
2022-12-18T19:22:55.229Z,1.42
2022-12-18T19:25:38.642Z,0.80
2022-12-18T19:28:21.252Z,0.73
2022-12-18T19:30:55.383Z,0.70
2022-12-18T19:33:44.651Z,1.58
2022-12-18T19:36:21.521Z,1.17
2022-12-18T19:38:51.640Z,1.40
2022-12-18T19:41:21.275Z,1.38
2022-12-18T19:43:51.125Z,1.40
2022-12-18T19:46:21.358Z,0.95
2022-12-18T19:48:50.375Z,1.33
2022-12-18T19:51:30.005Z,1.13
2022-12-18T19:54:01.632Z,1.23
2022-12-18T19:56:34.558Z,0.98
2022-12-18T19:59:05.330Z,0.85
2022-12-18T20:01:33.900Z,0.82
2022-12-18T20:04:02.231Z,1.23
2022-12-18T20:06:35.036Z,1.40
2022-12-18T20:09:06.069Z,1.15
2022-12-18T20:11:40.149Z,1.20
2022-12-18T20:14:14.445Z,1.10
2022-12-18T20:16:47.866Z,1.25
2022-12-18T20:19:16.285Z,0.80
2022-12-18T20:21:44.314Z,1.00
2022-12-18T20:24:13.235Z,1.02
2022-12-18T20:29:26.401Z,1.13
2022-12-18T20:31:54.741Z,1.23
2022-12-18T20:34:22.825Z,1.42
2022-12-18T20:36:50.956Z,0.90
2022-12-18T20:39:19.495Z,1.08
2022-12-18T20:41:48.440Z,1.08
2022-12-18T20:44:22.740Z,1.20
2022-12-18T20:47:08.471Z,0.98
2022-12-18T20:49:37.555Z,0.93
2022-12-18T20:52:07.868Z,1.00
2022-12-18T20:54:35.927Z,0.77
2022-12-18T20:57:22.559Z,0.98
2022-12-18T20:59:50.834Z,0.70
2022-12-18T21:02:19.204Z,0.85
2022-12-18T21:04:47.566Z,0.90
2022-12-18T21:07:15.778Z,0.80
2022-12-18T21:09:43.855Z,1.02
2022-12-18T21:12:42.756Z,0.73
2022-12-18T21:15:18.390Z,0.88
2022-12-18T21:17:46.673Z,0.65
2022-12-18T21:20:18.054Z,1.00
2022-12-18T21:23:16.356Z,0.77
2022-12-18T21:25:45.613Z,0.70
2022-12-18T21:28:14.776Z,0.77
2022-12-18T21:31:01.175Z,1.00
2022-12-18T21:33:29.273Z,0.93
2022-12-18T21:35:57.363Z,0.90
2022-12-18T21:38:28.212Z,0.95
2022-12-18T21:41:15.531Z,1.00
2022-12-18T21:44:02.586Z,0.70
2022-12-18T21:46:34.817Z,0.95
2022-12-18T21:49:04.871Z,0.82
2022-12-18T21:51:34.173Z,0.98
2022-12-18T21:54:02.741Z,0.90
2022-12-18T21:56:55.256Z,0.90
2022-12-18T21:59:26.919Z,1.10
2022-12-18T22:05:01.320Z,1.00
2022-12-18T22:07:30.347Z,0.95
2022-12-18T22:09:58.839Z,0.80
2022-12-18T22:12:43.719Z,0.80
2022-12-18T22:15:21.330Z,1.00
2022-12-18T22:17:59.716Z,1.10
2022-12-18T22:20:46.588Z,0.80
2022-12-18T22:23:33.283Z,1.50
2022-12-18T22:26:01.815Z,1.17
2022-12-18T22:29:07.144Z,1.13
2022-12-18T22:31:35.784Z,1.27
2022-12-18T22:34:23.323Z,1.13
2022-12-18T22:36:51.781Z,1.20
2022-12-18T22:39:22.839Z,1.17
2022-12-18T22:42:09.438Z,1.50
2022-12-18T22:44:37.780Z,1.40
2022-12-18T22:47:07.445Z,1.40
2022-12-18T22:49:36.011Z,1.23
2022-12-18T22:52:06.404Z,1.55
2022-12-18T22:54:35.008Z,1.63
2022-12-18T22:57:03.403Z,1.55
2022-12-18T22:59:31.637Z,1.50
2022-12-18T23:02:00.060Z,1.77
2022-12-18T23:04:35.142Z,1.23
2022-12-18T23:07:24.296Z,1.65
2022-12-18T23:09:59.623Z,1.70
2022-12-18T23:12:29.490Z,1.50
2022-12-18T23:14:57.836Z,1.50
2022-12-18T23:17:26.098Z,1.70
2022-12-18T23:20:13.832Z,1.40
2022-12-18T23:22:42.074Z,1.50
2022-12-18T23:25:10.373Z,1.33
2022-12-18T23:27:38.479Z,1.50
2022-12-18T23:30:07.352Z,1.77
2022-12-18T23:32:39.087Z,1.80
2022-12-18T23:35:07.822Z,1.50
2022-12-18T23:38:00.228Z,1.48
2022-12-18T23:40:26.720Z,1.70
2022-12-18T23:42:54.913Z,1.73
2022-12-18T23:45:23.101Z,1.60
2022-12-18T23:47:51.487Z,1.70
2022-12-18T23:50:19.722Z,1.63
2022-12-18T23:53:11.485Z,1.50
2022-12-18T23:55:41.962Z,1.60
2022-12-18T23:58:19.441Z,1.30
